sensor_id;sensor_type;location;lat;lon;timestamp;P1;durP1;ratioP1;P2;durP2;ratioP2
7515;SDS011;3799;47.184;8.538;2023-07-13T00:00:28;5.88;;;2.78;;
7515;SDS011;3799;47.184;8.538;2023-07-13T00:02:56;3.33;;;1.10;;
7515;SDS011;3799;47.184;8.538;2023-07-13T00:05:24;3.45;;;1.30;;
7515;SDS011;3799;47.184;8.538;2023-07-13T00:07:51;3.22;;;1.38;;
7515;SDS011;3799;47.184;8.538;2023-07-13T00:10:18;4.22;;;1.75;;
7515;SDS011;3799;47.184;8.538;2023-07-13T00:12:47;2.78;;;1.20;;
7515;SDS011;3799;47.184;8.538;2023-07-13T00:15:19;3.03;;;1.25;;
7515;SDS011;3799;47.184;8.538;2023-07-13T00:17:50;3.20;;;1.30;;
7515;SDS011;3799;47.184;8.538;2023-07-13T00:20:22;3.47;;;1.50;;
7515;SDS011;3799;47.184;8.538;2023-07-13T00:22:52;3.92;;;1.73;;
7515;SDS011;3799;47.184;8.538;2023-07-13T00:25:24;3.30;;;1.38;;
7515;SDS011;3799;47.184;8.538;2023-07-13T00:27:54;3.67;;;1.45;;
7515;SDS011;3799;47.184;8.538;2023-07-13T00:30:22;4.57;;;1.38;;
7515;SDS011;3799;47.184;8.538;2023-07-13T00:32:50;4.20;;;0.98;;
7515;SDS011;3799;47.184;8.538;2023-07-13T00:35:33;3.42;;;1.17;;
7515;SDS011;3799;47.184;8.538;2023-07-13T00:38:01;3.63;;;1.40;;
7515;SDS011;3799;47.184;8.538;2023-07-13T00:40:28;2.72;;;1.30;;
7515;SDS011;3799;47.184;8.538;2023-07-13T00:42:57;3.25;;;1.08;;
7515;SDS011;3799;47.184;8.538;2023-07-13T00:47:52;4.68;;;1.00;;
7515;SDS011;3799;47.184;8.538;2023-07-13T00:50:22;3.58;;;1.02;;
7515;SDS011;3799;47.184;8.538;2023-07-13T00:52:52;3.35;;;1.08;;
7515;SDS011;3799;47.184;8.538;2023-07-13T00:55:21;3.20;;;1.00;;
7515;SDS011;3799;47.184;8.538;2023-07-13T00:57:49;4.13;;;1.27;;
7515;SDS011;3799;47.184;8.538;2023-07-13T01:00:16;4.63;;;1.35;;
7515;SDS011;3799;47.184;8.538;2023-07-13T01:02:46;4.53;;;0.93;;
7515;SDS011;3799;47.184;8.538;2023-07-13T01:05:17;2.55;;;0.80;;
7515;SDS011;3799;47.184;8.538;2023-07-13T01:07:46;4.03;;;1.30;;
7515;SDS011;3799;47.184;8.538;2023-07-13T01:10:16;1.70;;;0.70;;
7515;SDS011;3799;47.184;8.538;2023-07-13T01:12:44;5.95;;;1.10;;
7515;SDS011;3799;47.184;8.538;2023-07-13T01:18:08;4.68;;;1.35;;
7515;SDS011;3799;47.184;8.538;2023-07-13T01:20:38;3.05;;;1.17;;
7515;SDS011;3799;47.184;8.538;2023-07-13T01:23:07;3.15;;;1.30;;
7515;SDS011;3799;47.184;8.538;2023-07-13T01:25:37;3.10;;;1.30;;
7515;SDS011;3799;47.184;8.538;2023-07-13T01:28:05;4.47;;;1.17;;
7515;SDS011;3799;47.184;8.538;2023-07-13T01:30:36;3.25;;;1.27;;
7515;SDS011;3799;47.184;8.538;2023-07-13T01:33:07;2.30;;;0.70;;
7515;SDS011;3799;47.184;8.538;2023-07-13T01:35:36;9.55;;;1.98;;
7515;SDS011;3799;47.184;8.538;2023-07-13T01:38:03;3.05;;;0.95;;
7515;SDS011;3799;47.184;8.538;2023-07-13T01:40:31;3.75;;;0.98;;
7515;SDS011;3799;47.184;8.538;2023-07-13T01:42:59;3.17;;;1.10;;
7515;SDS011;3799;47.184;8.538;2023-07-13T01:45:27;2.45;;;1.00;;
7515;SDS011;3799;47.184;8.538;2023-07-13T01:47:54;1.75;;;0.80;;
7515;SDS011;3799;47.184;8.538;2023-07-13T01:50:22;2.30;;;1.00;;
7515;SDS011;3799;47.184;8.538;2023-07-13T01:52:50;4.80;;;1.05;;
7515;SDS011;3799;47.184;8.538;2023-07-13T01:55:17;5.10;;;1.30;;
7515;SDS011;3799;47.184;8.538;2023-07-13T01:57:44;6.30;;;1.35;;
7515;SDS011;3799;47.184;8.538;2023-07-13T02:00:11;3.53;;;1.17;;
7515;SDS011;3799;47.184;8.538;2023-07-13T02:02:40;4.63;;;1.50;;
7515;SDS011;3799;47.184;8.538;2023-07-13T02:05:11;3.53;;;1.40;;
7515;SDS011;3799;47.184;8.538;2023-07-13T02:07:40;3.22;;;1.30;;
7515;SDS011;3799;47.184;8.538;2023-07-13T02:10:08;3.10;;;1.30;;
7515;SDS011;3799;47.184;8.538;2023-07-13T02:12:37;4.03;;;1.52;;
7515;SDS011;3799;47.184;8.538;2023-07-13T02:15:05;4.18;;;1.45;;
7515;SDS011;3799;47.184;8.538;2023-07-13T02:17:34;5.32;;;2.00;;
7515;SDS011;3799;47.184;8.538;2023-07-13T02:20:03;2.40;;;1.02;;
7515;SDS011;3799;47.184;8.538;2023-07-13T02:22:31;5.03;;;1.63;;
7515;SDS011;3799;47.184;8.538;2023-07-13T02:24:59;3.47;;;1.27;;
7515;SDS011;3799;47.184;8.538;2023-07-13T02:27:26;4.65;;;1.45;;
7515;SDS011;3799;47.184;8.538;2023-07-13T02:29:53;3.55;;;1.42;;
7515;SDS011;3799;47.184;8.538;2023-07-13T02:32:21;4.05;;;1.20;;
7515;SDS011;3799;47.184;8.538;2023-07-13T02:34:48;3.30;;;1.33;;
7515;SDS011;3799;47.184;8.538;2023-07-13T02:37:15;4.88;;;1.40;;
7515;SDS011;3799;47.184;8.538;2023-07-13T02:39:43;3.90;;;1.20;;
7515;SDS011;3799;47.184;8.538;2023-07-13T02:42:10;3.65;;;1.40;;
7515;SDS011;3799;47.184;8.538;2023-07-13T02:44:37;4.88;;;1.65;;
7515;SDS011;3799;47.184;8.538;2023-07-13T02:47:04;3.55;;;1.23;;
7515;SDS011;3799;47.184;8.538;2023-07-13T02:49:32;5.03;;;1.50;;
7515;SDS011;3799;47.184;8.538;2023-07-13T02:51:59;3.10;;;1.20;;
7515;SDS011;3799;47.184;8.538;2023-07-13T02:54:26;4.30;;;1.38;;
7515;SDS011;3799;47.184;8.538;2023-07-13T02:56:53;5.85;;;1.60;;
7515;SDS011;3799;47.184;8.538;2023-07-13T02:59:20;2.65;;;1.00;;
7515;SDS011;3799;47.184;8.538;2023-07-13T03:01:48;3.38;;;1.45;;
7515;SDS011;3799;47.184;8.538;2023-07-13T03:04:15;2.75;;;1.05;;
7515;SDS011;3799;47.184;8.538;2023-07-13T03:06:46;3.33;;;1.40;;
7515;SDS011;3799;47.184;8.538;2023-07-13T03:09:13;3.22;;;1.08;;
7515;SDS011;3799;47.184;8.538;2023-07-13T03:11:40;2.75;;;1.08;;
7515;SDS011;3799;47.184;8.538;2023-07-13T03:14:09;4.07;;;1.33;;
7515;SDS011;3799;47.184;8.538;2023-07-13T03:16:36;2.55;;;1.23;;
7515;SDS011;3799;47.184;8.538;2023-07-13T03:19:03;3.03;;;1.30;;
7515;SDS011;3799;47.184;8.538;2023-07-13T03:21:30;6.13;;;1.48;;
7515;SDS011;3799;47.184;8.538;2023-07-13T03:23:58;2.88;;;1.25;;
7515;SDS011;3799;47.184;8.538;2023-07-13T03:26:25;2.22;;;0.95;;
7515;SDS011;3799;47.184;8.538;2023-07-13T03:28:52;2.88;;;1.33;;
7515;SDS011;3799;47.184;8.538;2023-07-13T03:31:20;2.28;;;0.80;;
7515;SDS011;3799;47.184;8.538;2023-07-13T03:33:50;2.45;;;1.30;;
7515;SDS011;3799;47.184;8.538;2023-07-13T03:36:22;2.65;;;1.20;;
7515;SDS011;3799;47.184;8.538;2023-07-13T03:38:53;2.97;;;1.00;;
7515;SDS011;3799;47.184;8.538;2023-07-13T03:41:22;3.42;;;1.05;;
7515;SDS011;3799;47.184;8.538;2023-07-13T03:43:50;5.90;;;1.35;;
7515;SDS011;3799;47.184;8.538;2023-07-13T03:46:18;3.05;;;0.70;;
7515;SDS011;3799;47.184;8.538;2023-07-13T03:48:46;3.05;;;1.05;;
7515;SDS011;3799;47.184;8.538;2023-07-13T03:51:17;3.50;;;1.35;;
7515;SDS011;3799;47.184;8.538;2023-07-13T03:53:45;2.38;;;1.10;;
7515;SDS011;3799;47.184;8.538;2023-07-13T03:56:14;2.55;;;1.00;;
7515;SDS011;3799;47.184;8.538;2023-07-13T03:58:42;2.67;;;0.88;;
7515;SDS011;3799;47.184;8.538;2023-07-13T04:01:12;3.17;;;0.98;;
7515;SDS011;3799;47.184;8.538;2023-07-13T04:03:49;3.63;;;1.23;;
7515;SDS011;3799;47.184;8.538;2023-07-13T04:06:21;2.83;;;1.15;;
7515;SDS011;3799;47.184;8.538;2023-07-13T04:08:54;2.85;;;1.10;;
7515;SDS011;3799;47.184;8.538;2023-07-13T04:13:55;4.18;;;1.60;;
7515;SDS011;3799;47.184;8.538;2023-07-13T04:16:23;3.03;;;1.10;;
7515;SDS011;3799;47.184;8.538;2023-07-13T04:18:51;2.42;;;0.77;;
7515;SDS011;3799;47.184;8.538;2023-07-13T04:21:26;2.90;;;0.98;;
7515;SDS011;3799;47.184;8.538;2023-07-13T04:23:54;2.72;;;1.27;;
7515;SDS011;3799;47.184;8.538;2023-07-13T04:26:22;4.63;;;1.52;;
7515;SDS011;3799;47.184;8.538;2023-07-13T04:28:50;3.38;;;1.40;;
7515;SDS011;3799;47.184;8.538;2023-07-13T04:31:18;2.67;;;1.17;;
7515;SDS011;3799;47.184;8.538;2023-07-13T04:33:46;3.35;;;1.30;;
7515;SDS011;3799;47.184;8.538;2023-07-13T04:36:15;3.03;;;1.10;;
7515;SDS011;3799;47.184;8.538;2023-07-13T04:38:43;8.13;;;1.25;;
7515;SDS011;3799;47.184;8.538;2023-07-13T04:41:10;3.78;;;1.25;;
7515;SDS011;3799;47.184;8.538;2023-07-13T04:43:39;2.92;;;1.08;;
7515;SDS011;3799;47.184;8.538;2023-07-13T04:46:08;3.10;;;1.00;;
7515;SDS011;3799;47.184;8.538;2023-07-13T04:48:38;2.97;;;1.00;;
7515;SDS011;3799;47.184;8.538;2023-07-13T04:51:05;2.75;;;0.63;;
7515;SDS011;3799;47.184;8.538;2023-07-13T04:53:33;3.95;;;1.15;;
7515;SDS011;3799;47.184;8.538;2023-07-13T04:56:01;5.45;;;1.02;;
7515;SDS011;3799;47.184;8.538;2023-07-13T04:58:29;2.85;;;1.00;;
7515;SDS011;3799;47.184;8.538;2023-07-13T05:01:00;2.45;;;0.90;;
7515;SDS011;3799;47.184;8.538;2023-07-13T05:03:32;3.97;;;1.02;;
7515;SDS011;3799;47.184;8.538;2023-07-13T05:06:04;3.42;;;1.00;;
7515;SDS011;3799;47.184;8.538;2023-07-13T05:08:33;1.67;;;0.65;;
7515;SDS011;3799;47.184;8.538;2023-07-13T05:11:00;3.42;;;0.98;;
7515;SDS011;3799;47.184;8.538;2023-07-13T05:13:29;2.70;;;1.10;;
7515;SDS011;3799;47.184;8.538;2023-07-13T05:15:57;3.08;;;0.82;;
7515;SDS011;3799;47.184;8.538;2023-07-13T05:18:26;2.70;;;1.10;;
7515;SDS011;3799;47.184;8.538;2023-07-13T05:20:56;3.83;;;0.98;;
7515;SDS011;3799;47.184;8.538;2023-07-13T05:23:29;3.55;;;0.75;;
7515;SDS011;3799;47.184;8.538;2023-07-13T05:25:57;3.63;;;1.30;;
7515;SDS011;3799;47.184;8.538;2023-07-13T05:28:24;1.92;;;0.80;;
7515;SDS011;3799;47.184;8.538;2023-07-13T05:30:53;2.95;;;0.90;;
7515;SDS011;3799;47.184;8.538;2023-07-13T05:33:23;3.38;;;0.95;;
7515;SDS011;3799;47.184;8.538;2023-07-13T05:35:51;2.25;;;1.02;;
7515;SDS011;3799;47.184;8.538;2023-07-13T05:38:19;3.90;;;1.00;;
7515;SDS011;3799;47.184;8.538;2023-07-13T05:40:46;4.75;;;0.70;;
7515;SDS011;3799;47.184;8.538;2023-07-13T05:43:13;2.90;;;1.00;;
7515;SDS011;3799;47.184;8.538;2023-07-13T05:45:41;1.58;;;0.52;;
7515;SDS011;3799;47.184;8.538;2023-07-13T05:48:08;2.65;;;0.80;;
7515;SDS011;3799;47.184;8.538;2023-07-13T05:50:35;2.92;;;1.05;;
7515;SDS011;3799;47.184;8.538;2023-07-13T05:53:02;3.00;;;0.77;;
7515;SDS011;3799;47.184;8.538;2023-07-13T05:55:30;2.88;;;0.80;;
7515;SDS011;3799;47.184;8.538;2023-07-13T05:57:57;1.80;;;0.70;;
7515;SDS011;3799;47.184;8.538;2023-07-13T06:00:25;2.22;;;0.85;;
7515;SDS011;3799;47.184;8.538;2023-07-13T06:02:53;2.30;;;0.95;;
7515;SDS011;3799;47.184;8.538;2023-07-13T06:05:21;3.40;;;1.00;;
7515;SDS011;3799;47.184;8.538;2023-07-13T06:07:48;4.03;;;1.13;;
7515;SDS011;3799;47.184;8.538;2023-07-13T06:10:15;3.45;;;0.93;;
7515;SDS011;3799;47.184;8.538;2023-07-13T06:12:42;3.95;;;1.20;;
7515;SDS011;3799;47.184;8.538;2023-07-13T06:15:10;3.20;;;1.10;;
7515;SDS011;3799;47.184;8.538;2023-07-13T06:17:38;2.65;;;0.82;;
7515;SDS011;3799;47.184;8.538;2023-07-13T06:20:05;3.25;;;1.20;;
7515;SDS011;3799;47.184;8.538;2023-07-13T06:22:33;2.65;;;0.95;;
7515;SDS011;3799;47.184;8.538;2023-07-13T06:25:00;2.72;;;1.00;;
7515;SDS011;3799;47.184;8.538;2023-07-13T06:27:27;2.50;;;1.00;;
7515;SDS011;3799;47.184;8.538;2023-07-13T06:29:56;3.50;;;1.08;;
7515;SDS011;3799;47.184;8.538;2023-07-13T06:32:24;3.58;;;0.90;;
7515;SDS011;3799;47.184;8.538;2023-07-13T06:34:51;3.28;;;0.95;;
7515;SDS011;3799;47.184;8.538;2023-07-13T06:37:19;4.60;;;1.00;;
7515;SDS011;3799;47.184;8.538;2023-07-13T06:39:46;2.70;;;0.90;;
7515;SDS011;3799;47.184;8.538;2023-07-13T06:42:15;4.93;;;1.20;;
7515;SDS011;3799;47.184;8.538;2023-07-13T06:44:43;1.38;;;0.63;;
7515;SDS011;3799;47.184;8.538;2023-07-13T06:47:11;1.75;;;0.70;;
7515;SDS011;3799;47.184;8.538;2023-07-13T06:49:38;3.35;;;0.82;;
7515;SDS011;3799;47.184;8.538;2023-07-13T06:52:08;4.35;;;0.88;;
7515;SDS011;3799;47.184;8.538;2023-07-13T06:54:36;2.92;;;1.00;;
7515;SDS011;3799;47.184;8.538;2023-07-13T06:57:06;2.58;;;0.85;;
7515;SDS011;3799;47.184;8.538;2023-07-13T06:59:34;4.40;;;1.25;;
7515;SDS011;3799;47.184;8.538;2023-07-13T07:02:01;3.42;;;1.40;;
7515;SDS011;3799;47.184;8.538;2023-07-13T07:04:28;4.03;;;1.00;;
7515;SDS011;3799;47.184;8.538;2023-07-13T07:06:56;3.97;;;0.98;;
7515;SDS011;3799;47.184;8.538;2023-07-13T07:09:25;2.22;;;1.05;;
7515;SDS011;3799;47.184;8.538;2023-07-13T07:11:59;3.00;;;0.90;;
7515;SDS011;3799;47.184;8.538;2023-07-13T07:14:29;3.60;;;1.05;;
7515;SDS011;3799;47.184;8.538;2023-07-13T07:16:57;3.75;;;1.15;;
7515;SDS011;3799;47.184;8.538;2023-07-13T07:19:27;2.75;;;0.80;;
7515;SDS011;3799;47.184;8.538;2023-07-13T07:21:56;2.35;;;0.80;;
7515;SDS011;3799;47.184;8.538;2023-07-13T07:24:23;6.05;;;1.27;;
7515;SDS011;3799;47.184;8.538;2023-07-13T07:26:50;3.22;;;0.93;;
7515;SDS011;3799;47.184;8.538;2023-07-13T07:29:21;2.80;;;0.85;;
7515;SDS011;3799;47.184;8.538;2023-07-13T07:31:52;3.00;;;1.10;;
7515;SDS011;3799;47.184;8.538;2023-07-13T07:34:22;2.50;;;1.10;;
7515;SDS011;3799;47.184;8.538;2023-07-13T07:36:49;2.15;;;0.90;;
7515;SDS011;3799;47.184;8.538;2023-07-13T07:39:22;3.63;;;0.98;;
7515;SDS011;3799;47.184;8.538;2023-07-13T07:41:50;3.13;;;1.10;;
7515;SDS011;3799;47.184;8.538;2023-07-13T07:44:22;3.22;;;1.10;;
7515;SDS011;3799;47.184;8.538;2023-07-13T07:47:01;3.38;;;1.30;;
7515;SDS011;3799;47.184;8.538;2023-07-13T07:49:30;4.00;;;1.20;;
7515;SDS011;3799;47.184;8.538;2023-07-13T07:51:57;3.47;;;1.10;;
7515;SDS011;3799;47.184;8.538;2023-07-13T07:54:24;2.30;;;0.88;;
7515;SDS011;3799;47.184;8.538;2023-07-13T07:57:11;2.75;;;1.00;;
7515;SDS011;3799;47.184;8.538;2023-07-13T07:59:42;2.90;;;1.40;;
7515;SDS011;3799;47.184;8.538;2023-07-13T08:02:12;3.28;;;1.38;;
7515;SDS011;3799;47.184;8.538;2023-07-13T08:04:59;3.45;;;1.10;;
7515;SDS011;3799;47.184;8.538;2023-07-13T08:07:32;3.03;;;1.20;;
7515;SDS011;3799;47.184;8.538;2023-07-13T08:09:59;3.80;;;1.17;;
7515;SDS011;3799;47.184;8.538;2023-07-13T08:12:27;2.45;;;1.08;;
7515;SDS011;3799;47.184;8.538;2023-07-13T08:14:57;1.80;;;0.70;;
7515;SDS011;3799;47.184;8.538;2023-07-13T08:17:24;2.72;;;1.15;;
7515;SDS011;3799;47.184;8.538;2023-07-13T08:19:52;2.95;;;1.33;;
7515;SDS011;3799;47.184;8.538;2023-07-13T08:22:19;1.92;;;0.90;;
7515;SDS011;3799;47.184;8.538;2023-07-13T08:24:47;3.45;;;1.20;;
7515;SDS011;3799;47.184;8.538;2023-07-13T08:27:22;2.28;;;1.13;;
7515;SDS011;3799;47.184;8.538;2023-07-13T08:29:51;3.47;;;1.05;;
7515;SDS011;3799;47.184;8.538;2023-07-13T08:32:19;2.60;;;1.10;;
7515;SDS011;3799;47.184;8.538;2023-07-13T08:34:48;5.10;;;1.73;;
7515;SDS011;3799;47.184;8.538;2023-07-13T08:37:16;4.13;;;1.52;;
7515;SDS011;3799;47.184;8.538;2023-07-13T08:39:44;2.92;;;1.10;;
7515;SDS011;3799;47.184;8.538;2023-07-13T08:45:19;3.50;;;1.23;;
7515;SDS011;3799;47.184;8.538;2023-07-13T08:47:53;4.15;;;1.40;;
7515;SDS011;3799;47.184;8.538;2023-07-13T08:50:55;3.15;;;1.40;;
7515;SDS011;3799;47.184;8.538;2023-07-13T08:53:45;4.22;;;1.60;;
7515;SDS011;3799;47.184;8.538;2023-07-13T08:56:17;2.10;;;0.93;;
7515;SDS011;3799;47.184;8.538;2023-07-13T08:58:58;2.22;;;0.95;;
7515;SDS011;3799;47.184;8.538;2023-07-13T09:01:47;4.50;;;1.15;;
7515;SDS011;3799;47.184;8.538;2023-07-13T09:04:35;3.10;;;0.85;;
7515;SDS011;3799;47.184;8.538;2023-07-13T09:10:00;2.50;;;1.00;;
7515;SDS011;3799;47.184;8.538;2023-07-13T09:12:46;2.05;;;0.98;;
7515;SDS011;3799;47.184;8.538;2023-07-13T09:21:19;3.60;;;1.70;;
7515;SDS011;3799;47.184;8.538;2023-07-13T09:23:52;2.67;;;1.30;;
7515;SDS011;3799;47.184;8.538;2023-07-13T09:26:23;3.42;;;1.70;;
7515;SDS011;3799;47.184;8.538;2023-07-13T09:28:53;2.97;;;1.52;;
7515;SDS011;3799;47.184;8.538;2023-07-13T09:31:33;4.00;;;1.88;;
7515;SDS011;3799;47.184;8.538;2023-07-13T09:34:09;4.43;;;1.73;;
7515;SDS011;3799;47.184;8.538;2023-07-13T09:36:38;6.97;;;1.80;;
7515;SDS011;3799;47.184;8.538;2023-07-13T09:44:49;3.85;;;1.85;;
7515;SDS011;3799;47.184;8.538;2023-07-13T09:47:26;3.50;;;1.35;;
7515;SDS011;3799;47.184;8.538;2023-07-13T09:50:00;4.38;;;1.63;;
7515;SDS011;3799;47.184;8.538;2023-07-13T09:52:41;3.08;;;1.55;;
7515;SDS011;3799;47.184;8.538;2023-07-13T09:55:28;2.97;;;1.40;;
7515;SDS011;3799;47.184;8.538;2023-07-13T09:57:56;4.25;;;1.23;;
7515;SDS011;3799;47.184;8.538;2023-07-13T10:00:28;3.40;;;1.60;;
7515;SDS011;3799;47.184;8.538;2023-07-13T10:03:00;2.60;;;1.45;;
7515;SDS011;3799;47.184;8.538;2023-07-13T10:05:40;4.00;;;1.77;;
7515;SDS011;3799;47.184;8.538;2023-07-13T10:08:16;2.65;;;1.17;;
7515;SDS011;3799;47.184;8.538;2023-07-13T10:11:00;2.58;;;1.02;;
7515;SDS011;3799;47.184;8.538;2023-07-13T10:13:37;3.90;;;1.48;;
7515;SDS011;3799;47.184;8.538;2023-07-13T10:16:08;4.93;;;2.25;;
7515;SDS011;3799;47.184;8.538;2023-07-13T10:18:41;1.98;;;1.00;;
7515;SDS011;3799;47.184;8.538;2023-07-13T10:21:23;3.00;;;1.15;;
7515;SDS011;3799;47.184;8.538;2023-07-13T10:26:54;5.68;;;1.45;;
7515;SDS011;3799;47.184;8.538;2023-07-13T10:29:24;3.03;;;1.02;;
7515;SDS011;3799;47.184;8.538;2023-07-13T10:31:53;3.65;;;1.40;;
7515;SDS011;3799;47.184;8.538;2023-07-13T10:34:21;2.75;;;1.08;;
7515;SDS011;3799;47.184;8.538;2023-07-13T10:36:48;4.15;;;1.52;;
7515;SDS011;3799;47.184;8.538;2023-07-13T10:39:27;2.65;;;1.15;;
7515;SDS011;3799;47.184;8.538;2023-07-13T10:41:58;2.78;;;1.40;;
7515;SDS011;3799;47.184;8.538;2023-07-13T10:44:29;2.53;;;1.30;;
7515;SDS011;3799;47.184;8.538;2023-07-13T10:47:02;3.17;;;1.23;;
7515;SDS011;3799;47.184;8.538;2023-07-13T10:49:34;3.25;;;1.52;;
7515;SDS011;3799;47.184;8.538;2023-07-13T10:52:03;2.80;;;1.60;;
7515;SDS011;3799;47.184;8.538;2023-07-13T10:54:31;2.42;;;1.42;;
7515;SDS011;3799;47.184;8.538;2023-07-13T10:59:39;3.13;;;1.40;;
7515;SDS011;3799;47.184;8.538;2023-07-13T11:04:42;3.65;;;1.38;;
7515;SDS011;3799;47.184;8.538;2023-07-13T11:07:19;2.65;;;1.27;;
7515;SDS011;3799;47.184;8.538;2023-07-13T11:09:59;2.05;;;0.90;;
7515;SDS011;3799;47.184;8.538;2023-07-13T11:12:53;2.60;;;0.80;;
7515;SDS011;3799;47.184;8.538;2023-07-13T11:15:28;2.10;;;0.90;;
7515;SDS011;3799;47.184;8.538;2023-07-13T11:18:03;3.20;;;0.60;;
7515;SDS011;3799;47.184;8.538;2023-07-13T11:20:33;1.75;;;0.65;;
7515;SDS011;3799;47.184;8.538;2023-07-13T11:25:38;1.83;;;0.77;;
7515;SDS011;3799;47.184;8.538;2023-07-13T11:33:28;1.85;;;0.70;;
7515;SDS011;3799;47.184;8.538;2023-07-13T11:36:12;1.67;;;0.77;;
7515;SDS011;3799;47.184;8.538;2023-07-13T11:38:41;1.70;;;0.73;;
7515;SDS011;3799;47.184;8.538;2023-07-13T11:41:15;1.70;;;0.73;;
7515;SDS011;3799;47.184;8.538;2023-07-13T11:43:54;1.63;;;0.60;;
7515;SDS011;3799;47.184;8.538;2023-07-13T11:46:29;1.55;;;0.57;;
7515;SDS011;3799;47.184;8.538;2023-07-13T11:48:56;2.53;;;0.77;;
7515;SDS011;3799;47.184;8.538;2023-07-13T11:51:25;1.70;;;0.60;;
7515;SDS011;3799;47.184;8.538;2023-07-13T11:53:58;4.15;;;0.75;;
7515;SDS011;3799;47.184;8.538;2023-07-13T11:56:29;3.80;;;0.40;;
7515;SDS011;3799;47.184;8.538;2023-07-13T11:58:59;2.63;;;0.50;;
7515;SDS011;3799;47.184;8.538;2023-07-13T12:01:31;2.33;;;0.60;;
7515;SDS011;3799;47.184;8.538;2023-07-13T12:04:03;3.38;;;0.50;;
7515;SDS011;3799;47.184;8.538;2023-07-13T12:06:36;1.15;;;0.35;;
7515;SDS011;3799;47.184;8.538;2023-07-13T12:09:10;3.08;;;0.50;;
7515;SDS011;3799;47.184;8.538;2023-07-13T12:11:42;1.20;;;0.50;;
7515;SDS011;3799;47.184;8.538;2023-07-13T12:14:13;2.38;;;0.95;;
7515;SDS011;3799;47.184;8.538;2023-07-13T12:16:45;4.15;;;0.90;;
7515;SDS011;3799;47.184;8.538;2023-07-13T12:19:26;1.65;;;0.65;;
7515;SDS011;3799;47.184;8.538;2023-07-13T12:21:58;2.05;;;0.70;;
7515;SDS011;3799;47.184;8.538;2023-07-13T12:24:26;1.58;;;0.43;;
7515;SDS011;3799;47.184;8.538;2023-07-13T12:26:58;2.95;;;0.60;;
7515;SDS011;3799;47.184;8.538;2023-07-13T12:29:31;1.58;;;0.68;;
7515;SDS011;3799;47.184;8.538;2023-07-13T12:31:59;1.83;;;0.65;;
7515;SDS011;3799;47.184;8.538;2023-07-13T12:34:27;1.77;;;0.70;;
7515;SDS011;3799;47.184;8.538;2023-07-13T12:37:03;1.73;;;0.65;;
7515;SDS011;3799;47.184;8.538;2023-07-13T12:39:46;3.05;;;0.60;;
7515;SDS011;3799;47.184;8.538;2023-07-13T12:42:25;1.25;;;0.40;;
7515;SDS011;3799;47.184;8.538;2023-07-13T12:47:28;2.00;;;0.80;;
7515;SDS011;3799;47.184;8.538;2023-07-13T12:49:59;1.88;;;0.60;;
7515;SDS011;3799;47.184;8.538;2023-07-13T12:52:33;2.10;;;0.80;;
7515;SDS011;3799;47.184;8.538;2023-07-13T12:55:07;3.17;;;0.60;;
7515;SDS011;3799;47.184;8.538;2023-07-13T12:57:51;2.85;;;0.70;;
7515;SDS011;3799;47.184;8.538;2023-07-13T13:03:35;2.25;;;0.70;;
7515;SDS011;3799;47.184;8.538;2023-07-13T13:05:57;3.35;;;0.75;;
7515;SDS011;3799;47.184;8.538;2023-07-13T13:08:33;3.05;;;0.70;;
7515;SDS011;3799;47.184;8.538;2023-07-13T13:11:02;2.15;;;0.65;;
7515;SDS011;3799;47.184;8.538;2023-07-13T13:13:29;1.48;;;0.60;;
7515;SDS011;3799;47.184;8.538;2023-07-13T13:16:01;1.30;;;0.60;;
7515;SDS011;3799;47.184;8.538;2023-07-13T13:18:43;2.10;;;0.60;;
7515;SDS011;3799;47.184;8.538;2023-07-13T13:21:11;2.30;;;0.70;;
7515;SDS011;3799;47.184;8.538;2023-07-13T13:23:38;1.65;;;0.50;;
7515;SDS011;3799;47.184;8.538;2023-07-13T13:26:10;3.00;;;0.60;;
7515;SDS011;3799;47.184;8.538;2023-07-13T13:28:39;2.90;;;0.60;;
7515;SDS011;3799;47.184;8.538;2023-07-13T13:31:10;2.20;;;0.60;;
7515;SDS011;3799;47.184;8.538;2023-07-13T13:33:40;3.10;;;0.65;;
7515;SDS011;3799;47.184;8.538;2023-07-13T13:36:17;2.83;;;0.85;;
7515;SDS011;3799;47.184;8.538;2023-07-13T13:38:47;2.13;;;0.60;;
7515;SDS011;3799;47.184;8.538;2023-07-13T13:41:15;3.40;;;0.80;;
7515;SDS011;3799;47.184;8.538;2023-07-13T13:43:43;1.70;;;0.40;;
7515;SDS011;3799;47.184;8.538;2023-07-13T13:46:16;1.52;;;0.60;;
7515;SDS011;3799;47.184;8.538;2023-07-13T13:48:45;1.95;;;0.90;;
7515;SDS011;3799;47.184;8.538;2023-07-13T13:51:14;2.00;;;0.55;;
7515;SDS011;3799;47.184;8.538;2023-07-13T13:53:46;1.40;;;0.60;;
7515;SDS011;3799;47.184;8.538;2023-07-13T13:56:15;2.75;;;0.82;;
7515;SDS011;3799;47.184;8.538;2023-07-13T13:58:44;2.78;;;0.70;;
7515;SDS011;3799;47.184;8.538;2023-07-13T14:01:14;1.65;;;0.55;;
7515;SDS011;3799;47.184;8.538;2023-07-13T14:03:44;1.52;;;0.60;;
7515;SDS011;3799;47.184;8.538;2023-07-13T14:06:12;3.03;;;0.65;;
7515;SDS011;3799;47.184;8.538;2023-07-13T14:08:40;3.08;;;0.82;;
7515;SDS011;3799;47.184;8.538;2023-07-13T14:11:11;1.33;;;0.45;;
7515;SDS011;3799;47.184;8.538;2023-07-13T14:13:44;2.15;;;0.80;;
7515;SDS011;3799;47.184;8.538;2023-07-13T14:16:16;1.40;;;0.52;;
7515;SDS011;3799;47.184;8.538;2023-07-13T14:18:46;1.52;;;0.60;;
7515;SDS011;3799;47.184;8.538;2023-07-13T14:21:16;2.70;;;0.82;;
7515;SDS011;3799;47.184;8.538;2023-07-13T14:23:45;1.77;;;0.47;;
7515;SDS011;3799;47.184;8.538;2023-07-13T14:26:23;4.07;;;0.80;;
7515;SDS011;3799;47.184;8.538;2023-07-13T14:28:55;1.25;;;0.45;;
7515;SDS011;3799;47.184;8.538;2023-07-13T14:31:25;1.00;;;0.50;;
7515;SDS011;3799;47.184;8.538;2023-07-13T14:33:56;1.10;;;0.30;;
7515;SDS011;3799;47.184;8.538;2023-07-13T14:36:31;2.40;;;0.47;;
7515;SDS011;3799;47.184;8.538;2023-07-13T14:39:04;1.73;;;0.50;;
7515;SDS011;3799;47.184;8.538;2023-07-13T14:41:38;2.13;;;1.20;;
7515;SDS011;3799;47.184;8.538;2023-07-13T14:44:12;2.75;;;0.70;;
7515;SDS011;3799;47.184;8.538;2023-07-13T14:46:42;2.03;;;0.60;;
7515;SDS011;3799;47.184;8.538;2023-07-13T14:51:57;2.83;;;0.80;;
7515;SDS011;3799;47.184;8.538;2023-07-13T14:54:26;1.75;;;0.60;;
7515;SDS011;3799;47.184;8.538;2023-07-13T14:56:53;1.75;;;0.63;;
7515;SDS011;3799;47.184;8.538;2023-07-13T14:59:21;1.50;;;0.60;;
7515;SDS011;3799;47.184;8.538;2023-07-13T15:01:49;1.13;;;0.50;;
7515;SDS011;3799;47.184;8.538;2023-07-13T15:04:17;1.50;;;0.60;;
7515;SDS011;3799;47.184;8.538;2023-07-13T15:06:58;2.97;;;0.63;;
7515;SDS011;3799;47.184;8.538;2023-07-13T15:09:29;2.50;;;0.77;;
7515;SDS011;3799;47.184;8.538;2023-07-13T15:11:56;1.50;;;0.70;;
7515;SDS011;3799;47.184;8.538;2023-07-13T15:14:25;1.73;;;1.02;;
7515;SDS011;3799;47.184;8.538;2023-07-13T15:16:58;1.33;;;0.45;;
7515;SDS011;3799;47.184;8.538;2023-07-13T15:19:26;1.77;;;0.70;;
7515;SDS011;3799;47.184;8.538;2023-07-13T15:21:54;1.27;;;0.40;;
7515;SDS011;3799;47.184;8.538;2023-07-13T15:24:24;2.83;;;0.43;;
7515;SDS011;3799;47.184;8.538;2023-07-13T15:26:51;3.25;;;0.90;;
7515;SDS011;3799;47.184;8.538;2023-07-13T15:29:20;1.90;;;1.00;;
7515;SDS011;3799;47.184;8.538;2023-07-13T15:31:47;2.05;;;0.60;;
7515;SDS011;3799;47.184;8.538;2023-07-13T15:34:19;1.95;;;0.60;;
7515;SDS011;3799;47.184;8.538;2023-07-13T15:36:51;2.00;;;0.55;;
7515;SDS011;3799;47.184;8.538;2023-07-13T15:39:20;1.33;;;0.50;;
7515;SDS011;3799;47.184;8.538;2023-07-13T15:41:47;1.83;;;0.70;;
7515;SDS011;3799;47.184;8.538;2023-07-13T15:44:26;2.30;;;0.80;;
7515;SDS011;3799;47.184;8.538;2023-07-13T15:46:57;2.58;;;0.82;;
7515;SDS011;3799;47.184;8.538;2023-07-13T15:49:27;2.47;;;0.75;;
7515;SDS011;3799;47.184;8.538;2023-07-13T15:51:54;2.88;;;0.65;;
7515;SDS011;3799;47.184;8.538;2023-07-13T15:54:22;3.47;;;0.98;;
7515;SDS011;3799;47.184;8.538;2023-07-13T15:56:52;1.92;;;0.70;;
7515;SDS011;3799;47.184;8.538;2023-07-13T15:59:20;2.63;;;0.93;;
7515;SDS011;3799;47.184;8.538;2023-07-13T16:01:48;1.67;;;0.70;;
7515;SDS011;3799;47.184;8.538;2023-07-13T16:04:16;3.65;;;0.70;;
7515;SDS011;3799;47.184;8.538;2023-07-13T16:07:03;3.75;;;0.77;;
7515;SDS011;3799;47.184;8.538;2023-07-13T16:09:30;2.08;;;0.75;;
7515;SDS011;3799;47.184;8.538;2023-07-13T16:11:57;2.53;;;0.80;;
7515;SDS011;3799;47.184;8.538;2023-07-13T16:14:25;2.80;;;0.77;;
7515;SDS011;3799;47.184;8.538;2023-07-13T16:16:53;2.17;;;0.80;;
7515;SDS011;3799;47.184;8.538;2023-07-13T16:19:23;1.48;;;0.52;;
7515;SDS011;3799;47.184;8.538;2023-07-13T16:21:56;2.45;;;0.70;;
7515;SDS011;3799;47.184;8.538;2023-07-13T16:24:26;1.80;;;0.50;;